Aviation Digital Data Service (ADDS)

Output produced by METARs form (2116 UTC 09 December 2016)
found at http://www.aviationweather.gov/adds/metars/
 
KWWD 092056Z AUTO 30011G19KT 10SM OVC049 03/M07 A3026 RMK AO2 SLP249 T00281072 53010 $